sensor_id;sensor_type;location;lat;lon;timestamp;P1;durP1;ratioP1;P2;durP2;ratioP2
12484;SDS011;6307;46.804;11.580;2022-08-01T00:01:07;3.57;;;1.80;;
12484;SDS011;6307;46.804;11.580;2022-08-01T00:03:33;2.90;;;1.70;;
12484;SDS011;6307;46.804;11.580;2022-08-01T00:05:59;5.33;;;1.77;;
12484;SDS011;6307;46.804;11.580;2022-08-01T00:08:26;1.93;;;1.77;;
12484;SDS011;6307;46.804;11.580;2022-08-01T00:10:52;2.50;;;1.87;;
12484;SDS011;6307;46.804;11.580;2022-08-01T00:13:18;2.23;;;1.80;;
12484;SDS011;6307;46.804;11.580;2022-08-01T00:15:44;3.37;;;2.10;;
12484;SDS011;6307;46.804;11.580;2022-08-01T00:18:10;2.10;;;1.83;;
12484;SDS011;6307;46.804;11.580;2022-08-01T00:20:36;2.07;;;1.63;;
12484;SDS011;6307;46.804;11.580;2022-08-01T00:23:02;2.30;;;1.90;;
12484;SDS011;6307;46.804;11.580;2022-08-01T00:25:29;1.70;;;1.60;;
12484;SDS011;6307;46.804;11.580;2022-08-01T00:27:56;2.73;;;1.90;;
12484;SDS011;6307;46.804;11.580;2022-08-01T00:30:22;3.83;;;1.90;;
12484;SDS011;6307;46.804;11.580;2022-08-01T00:32:48;2.03;;;1.80;;
12484;SDS011;6307;46.804;11.580;2022-08-01T00:35:14;2.70;;;1.73;;
12484;SDS011;6307;46.804;11.580;2022-08-01T00:37:41;2.53;;;1.90;;
12484;SDS011;6307;46.804;11.580;2022-08-01T00:40:09;6.13;;;1.87;;
12484;SDS011;6307;46.804;11.580;2022-08-01T00:42:35;2.90;;;1.80;;
12484;SDS011;6307;46.804;11.580;2022-08-01T00:45:01;5.40;;;2.13;;
12484;SDS011;6307;46.804;11.580;2022-08-01T00:47:28;2.30;;;1.83;;
12484;SDS011;6307;46.804;11.580;2022-08-01T00:49:54;2.77;;;2.10;;
12484;SDS011;6307;46.804;11.580;2022-08-01T00:52:20;2.83;;;1.70;;
12484;SDS011;6307;46.804;11.580;2022-08-01T00:54:46;1.77;;;1.67;;
12484;SDS011;6307;46.804;11.580;2022-08-01T00:57:13;2.70;;;1.87;;
12484;SDS011;6307;46.804;11.580;2022-08-01T00:59:40;3.30;;;1.67;;
12484;SDS011;6307;46.804;11.580;2022-08-01T01:02:07;3.90;;;2.17;;
12484;SDS011;6307;46.804;11.580;2022-08-01T01:04:33;4.83;;;1.67;;
12484;SDS011;6307;46.804;11.580;2022-08-01T01:07:17;2.47;;;1.70;;
12484;SDS011;6307;46.804;11.580;2022-08-01T01:12:50;4.33;;;2.10;;
12484;SDS011;6307;46.804;11.580;2022-08-01T01:15:51;3.27;;;2.23;;
12484;SDS011;6307;46.804;11.580;2022-08-01T01:27:03;3.60;;;1.90;;
12484;SDS011;6307;46.804;11.580;2022-08-01T01:29:48;3.50;;;2.00;;
12484;SDS011;6307;46.804;11.580;2022-08-01T01:34:58;4.57;;;1.93;;
12484;SDS011;6307;46.804;11.580;2022-08-01T01:37:31;3.07;;;2.17;;
12484;SDS011;6307;46.804;11.580;2022-08-01T01:40:00;4.23;;;2.00;;
12484;SDS011;6307;46.804;11.580;2022-08-01T01:42:29;2.17;;;1.97;;
12484;SDS011;6307;46.804;11.580;2022-08-01T01:44:58;2.03;;;1.90;;
12484;SDS011;6307;46.804;11.580;2022-08-01T01:47:27;1.87;;;1.70;;
12484;SDS011;6307;46.804;11.580;2022-08-01T01:49:56;4.30;;;2.10;;
12484;SDS011;6307;46.804;11.580;2022-08-01T01:52:24;4.50;;;2.30;;
12484;SDS011;6307;46.804;11.580;2022-08-01T01:54:52;2.43;;;1.80;;
12484;SDS011;6307;46.804;11.580;2022-08-01T01:57:22;3.77;;;2.13;;
12484;SDS011;6307;46.804;11.580;2022-08-01T01:59:50;3.40;;;2.07;;
12484;SDS011;6307;46.804;11.580;2022-08-01T02:02:19;3.20;;;2.00;;
12484;SDS011;6307;46.804;11.580;2022-08-01T02:04:48;3.10;;;2.07;;
12484;SDS011;6307;46.804;11.580;2022-08-01T02:07:19;5.10;;;1.90;;
12484;SDS011;6307;46.804;11.580;2022-08-01T02:09:49;2.93;;;1.73;;
12484;SDS011;6307;46.804;11.580;2022-08-01T02:12:19;3.83;;;1.83;;
12484;SDS011;6307;46.804;11.580;2022-08-01T02:14:47;4.80;;;2.03;;
12484;SDS011;6307;46.804;11.580;2022-08-01T02:17:18;4.17;;;1.90;;
12484;SDS011;6307;46.804;11.580;2022-08-01T02:19:46;3.27;;;1.90;;
12484;SDS011;6307;46.804;11.580;2022-08-01T02:24:53;3.37;;;1.90;;
12484;SDS011;6307;46.804;11.580;2022-08-01T02:27:40;3.53;;;2.00;;
12484;SDS011;6307;46.804;11.580;2022-08-01T02:30:16;5.60;;;1.90;;
12484;SDS011;6307;46.804;11.580;2022-08-01T02:32:46;2.50;;;2.00;;
12484;SDS011;6307;46.804;11.580;2022-08-01T02:35:23;3.27;;;2.10;;
12484;SDS011;6307;46.804;11.580;2022-08-01T02:37:54;3.00;;;2.20;;
12484;SDS011;6307;46.804;11.580;2022-08-01T02:40:23;3.37;;;1.90;;
12484;SDS011;6307;46.804;11.580;2022-08-01T02:42:53;4.33;;;1.87;;
12484;SDS011;6307;46.804;11.580;2022-08-01T02:45:22;4.37;;;2.23;;
12484;SDS011;6307;46.804;11.580;2022-08-01T02:47:52;2.40;;;1.97;;
12484;SDS011;6307;46.804;11.580;2022-08-01T02:50:26;3.87;;;2.13;;
12484;SDS011;6307;46.804;11.580;2022-08-01T02:52:56;4.43;;;1.93;;
12484;SDS011;6307;46.804;11.580;2022-08-01T02:55:24;2.03;;;1.80;;
12484;SDS011;6307;46.804;11.580;2022-08-01T02:57:53;4.47;;;2.27;;
12484;SDS011;6307;46.804;11.580;2022-08-01T03:00:21;2.10;;;1.90;;
12484;SDS011;6307;46.804;11.580;2022-08-01T03:02:49;4.90;;;2.20;;
12484;SDS011;6307;46.804;11.580;2022-08-01T03:05:20;3.23;;;2.50;;
12484;SDS011;6307;46.804;11.580;2022-08-01T03:07:47;2.90;;;2.00;;
12484;SDS011;6307;46.804;11.580;2022-08-01T03:10:15;9.60;;;2.50;;
12484;SDS011;6307;46.804;11.580;2022-08-01T03:12:43;3.80;;;2.07;;
12484;SDS011;6307;46.804;11.580;2022-08-01T03:15:13;2.70;;;2.23;;
12484;SDS011;6307;46.804;11.580;2022-08-01T03:17:42;3.20;;;2.10;;
12484;SDS011;6307;46.804;11.580;2022-08-01T03:20:13;2.37;;;1.90;;
12484;SDS011;6307;46.804;11.580;2022-08-01T03:22:43;2.20;;;2.00;;
12484;SDS011;6307;46.804;11.580;2022-08-01T03:25:12;2.80;;;2.17;;
12484;SDS011;6307;46.804;11.580;2022-08-01T03:27:45;3.73;;;2.17;;
12484;SDS011;6307;46.804;11.580;2022-08-01T03:30:16;2.33;;;1.93;;
12484;SDS011;6307;46.804;11.580;2022-08-01T03:32:43;5.20;;;2.20;;
12484;SDS011;6307;46.804;11.580;2022-08-01T03:35:09;2.63;;;2.20;;
12484;SDS011;6307;46.804;11.580;2022-08-01T03:40:15;3.40;;;2.20;;
12484;SDS011;6307;46.804;11.580;2022-08-01T03:42:58;3.90;;;2.53;;
12484;SDS011;6307;46.804;11.580;2022-08-01T03:45:30;2.33;;;1.90;;
12484;SDS011;6307;46.804;11.580;2022-08-01T03:48:02;3.13;;;2.33;;
12484;SDS011;6307;46.804;11.580;2022-08-01T03:50:39;2.27;;;2.00;;
12484;SDS011;6307;46.804;11.580;2022-08-01T03:53:10;4.70;;;2.03;;
12484;SDS011;6307;46.804;11.580;2022-08-01T03:55:39;2.43;;;2.13;;
12484;SDS011;6307;46.804;11.580;2022-08-01T03:58:08;2.60;;;2.17;;
12484;SDS011;6307;46.804;11.580;2022-08-01T04:00:36;6.53;;;2.27;;
12484;SDS011;6307;46.804;11.580;2022-08-01T04:03:04;3.70;;;2.23;;
12484;SDS011;6307;46.804;11.580;2022-08-01T04:05:33;2.57;;;2.00;;
12484;SDS011;6307;46.804;11.580;2022-08-01T04:08:00;2.70;;;2.10;;
12484;SDS011;6307;46.804;11.580;2022-08-01T04:10:28;3.17;;;2.40;;
12484;SDS011;6307;46.804;11.580;2022-08-01T04:12:54;5.13;;;2.43;;
12484;SDS011;6307;46.804;11.580;2022-08-01T04:15:21;3.70;;;2.10;;
12484;SDS011;6307;46.804;11.580;2022-08-01T04:17:47;5.50;;;2.10;;
12484;SDS011;6307;46.804;11.580;2022-08-01T04:20:13;3.03;;;2.30;;
12484;SDS011;6307;46.804;11.580;2022-08-01T04:22:40;2.40;;;1.97;;
12484;SDS011;6307;46.804;11.580;2022-08-01T04:25:19;2.77;;;2.20;;
12484;SDS011;6307;46.804;11.580;2022-08-01T04:27:51;3.13;;;2.10;;
12484;SDS011;6307;46.804;11.580;2022-08-01T04:30:26;3.40;;;2.07;;
12484;SDS011;6307;46.804;11.580;2022-08-01T04:32:57;2.33;;;2.13;;
12484;SDS011;6307;46.804;11.580;2022-08-01T04:35:27;2.33;;;2.07;;
12484;SDS011;6307;46.804;11.580;2022-08-01T04:37:55;2.10;;;1.90;;
12484;SDS011;6307;46.804;11.580;2022-08-01T04:40:24;4.00;;;2.00;;
12484;SDS011;6307;46.804;11.580;2022-08-01T04:42:51;4.27;;;2.60;;
12484;SDS011;6307;46.804;11.580;2022-08-01T04:45:17;2.27;;;2.00;;
12484;SDS011;6307;46.804;11.580;2022-08-01T04:47:44;3.50;;;2.27;;
12484;SDS011;6307;46.804;11.580;2022-08-01T04:50:12;4.20;;;2.50;;
12484;SDS011;6307;46.804;11.580;2022-08-01T04:52:39;4.10;;;2.60;;
12484;SDS011;6307;46.804;11.580;2022-08-01T04:55:07;2.50;;;1.97;;
12484;SDS011;6307;46.804;11.580;2022-08-01T04:57:35;3.70;;;2.17;;
12484;SDS011;6307;46.804;11.580;2022-08-01T05:00:07;3.87;;;2.33;;
12484;SDS011;6307;46.804;11.580;2022-08-01T05:02:35;2.83;;;2.07;;
12484;SDS011;6307;46.804;11.580;2022-08-01T05:05:02;2.50;;;2.07;;
12484;SDS011;6307;46.804;11.580;2022-08-01T05:07:31;2.93;;;2.40;;
12484;SDS011;6307;46.804;11.580;2022-08-01T05:09:58;2.60;;;2.40;;
12484;SDS011;6307;46.804;11.580;2022-08-01T05:12:26;4.13;;;2.40;;
12484;SDS011;6307;46.804;11.580;2022-08-01T05:14:52;3.53;;;2.60;;
12484;SDS011;6307;46.804;11.580;2022-08-01T05:17:18;3.77;;;2.50;;
12484;SDS011;6307;46.804;11.580;2022-08-01T05:19:44;3.37;;;2.13;;
12484;SDS011;6307;46.804;11.580;2022-08-01T05:22:11;4.63;;;2.17;;
12484;SDS011;6307;46.804;11.580;2022-08-01T05:24:38;3.40;;;2.23;;
12484;SDS011;6307;46.804;11.580;2022-08-01T05:27:05;2.83;;;2.40;;
12484;SDS011;6307;46.804;11.580;2022-08-01T05:29:33;3.53;;;2.37;;
12484;SDS011;6307;46.804;11.580;2022-08-01T05:32:00;4.17;;;2.30;;
12484;SDS011;6307;46.804;11.580;2022-08-01T05:34:27;3.63;;;2.67;;
12484;SDS011;6307;46.804;11.580;2022-08-01T05:36:53;5.73;;;2.60;;
12484;SDS011;6307;46.804;11.580;2022-08-01T05:39:20;2.27;;;1.97;;
12484;SDS011;6307;46.804;11.580;2022-08-01T05:41:46;6.27;;;2.33;;
12484;SDS011;6307;46.804;11.580;2022-08-01T05:44:12;2.67;;;2.13;;
12484;SDS011;6307;46.804;11.580;2022-08-01T05:46:38;3.73;;;2.47;;
12484;SDS011;6307;46.804;11.580;2022-08-01T05:49:04;4.13;;;1.83;;
12484;SDS011;6307;46.804;11.580;2022-08-01T05:51:31;2.83;;;2.20;;
12484;SDS011;6307;46.804;11.580;2022-08-01T05:53:58;5.50;;;2.20;;
12484;SDS011;6307;46.804;11.580;2022-08-01T05:56:24;2.27;;;2.07;;
12484;SDS011;6307;46.804;11.580;2022-08-01T05:58:51;3.60;;;2.23;;
12484;SDS011;6307;46.804;11.580;2022-08-01T06:01:17;3.30;;;2.20;;
12484;SDS011;6307;46.804;11.580;2022-08-01T06:03:44;2.77;;;2.27;;
12484;SDS011;6307;46.804;11.580;2022-08-01T06:06:11;5.97;;;2.47;;
12484;SDS011;6307;46.804;11.580;2022-08-01T06:08:39;2.50;;;2.00;;
12484;SDS011;6307;46.804;11.580;2022-08-01T06:11:05;4.53;;;1.80;;
12484;SDS011;6307;46.804;11.580;2022-08-01T06:13:32;4.00;;;1.80;;
12484;SDS011;6307;46.804;11.580;2022-08-01T06:15:58;3.47;;;2.00;;
12484;SDS011;6307;46.804;11.580;2022-08-01T06:18:24;2.83;;;1.90;;
12484;SDS011;6307;46.804;11.580;2022-08-01T06:20:50;3.57;;;1.80;;
12484;SDS011;6307;46.804;11.580;2022-08-01T06:23:17;3.23;;;1.60;;
12484;SDS011;6307;46.804;11.580;2022-08-01T06:25:45;2.17;;;1.77;;
12484;SDS011;6307;46.804;11.580;2022-08-01T06:28:11;2.27;;;1.70;;
12484;SDS011;6307;46.804;11.580;2022-08-01T06:30:37;2.50;;;1.60;;
12484;SDS011;6307;46.804;11.580;2022-08-01T06:33:03;3.07;;;1.70;;
12484;SDS011;6307;46.804;11.580;2022-08-01T06:35:29;2.40;;;1.57;;
12484;SDS011;6307;46.804;11.580;2022-08-01T06:37:56;3.00;;;1.67;;
12484;SDS011;6307;46.804;11.580;2022-08-01T06:40:23;1.90;;;1.50;;
12484;SDS011;6307;46.804;11.580;2022-08-01T06:42:50;3.10;;;1.70;;
12484;SDS011;6307;46.804;11.580;2022-08-01T06:45:16;3.33;;;1.70;;
12484;SDS011;6307;46.804;11.580;2022-08-01T06:47:43;3.43;;;1.50;;
12484;SDS011;6307;46.804;11.580;2022-08-01T06:50:10;3.30;;;1.67;;
12484;SDS011;6307;46.804;11.580;2022-08-01T06:52:39;2.57;;;1.37;;
12484;SDS011;6307;46.804;11.580;2022-08-01T06:55:06;1.50;;;1.40;;
12484;SDS011;6307;46.804;11.580;2022-08-01T06:57:33;3.70;;;1.43;;
12484;SDS011;6307;46.804;11.580;2022-08-01T07:00:04;3.37;;;1.50;;
12484;SDS011;6307;46.804;11.580;2022-08-01T07:02:37;1.47;;;1.37;;
12484;SDS011;6307;46.804;11.580;2022-08-01T07:05:04;1.90;;;1.60;;
12484;SDS011;6307;46.804;11.580;2022-08-01T07:07:30;1.40;;;1.30;;
12484;SDS011;6307;46.804;11.580;2022-08-01T07:09:57;2.93;;;1.20;;
12484;SDS011;6307;46.804;11.580;2022-08-01T07:12:23;4.10;;;1.57;;
12484;SDS011;6307;46.804;11.580;2022-08-01T07:14:49;2.57;;;1.40;;
12484;SDS011;6307;46.804;11.580;2022-08-01T07:17:15;3.57;;;1.57;;
12484;SDS011;6307;46.804;11.580;2022-08-01T07:19:41;1.77;;;1.40;;
12484;SDS011;6307;46.804;11.580;2022-08-01T07:22:08;3.30;;;1.40;;
12484;SDS011;6307;46.804;11.580;2022-08-01T07:24:34;2.30;;;1.30;;
12484;SDS011;6307;46.804;11.580;2022-08-01T07:27:00;3.67;;;1.57;;
12484;SDS011;6307;46.804;11.580;2022-08-01T07:29:26;2.47;;;1.63;;
12484;SDS011;6307;46.804;11.580;2022-08-01T07:31:53;2.10;;;1.40;;
12484;SDS011;6307;46.804;11.580;2022-08-01T07:34:22;3.57;;;1.40;;
12484;SDS011;6307;46.804;11.580;2022-08-01T07:36:50;1.53;;;1.40;;
12484;SDS011;6307;46.804;11.580;2022-08-01T07:39:17;1.70;;;1.43;;
12484;SDS011;6307;46.804;11.580;2022-08-01T07:41:44;3.90;;;1.30;;
12484;SDS011;6307;46.804;11.580;2022-08-01T07:44:10;1.40;;;1.30;;
12484;SDS011;6307;46.804;11.580;2022-08-01T07:46:36;1.70;;;1.23;;
12484;SDS011;6307;46.804;11.580;2022-08-01T07:49:03;1.50;;;1.30;;
12484;SDS011;6307;46.804;11.580;2022-08-01T07:51:29;1.70;;;1.20;;
12484;SDS011;6307;46.804;11.580;2022-08-01T07:53:55;1.50;;;1.40;;
12484;SDS011;6307;46.804;11.580;2022-08-01T07:56:22;2.40;;;1.40;;
12484;SDS011;6307;46.804;11.580;2022-08-01T07:58:49;1.40;;;1.30;;
12484;SDS011;6307;46.804;11.580;2022-08-01T08:01:15;3.47;;;1.30;;
12484;SDS011;6307;46.804;11.580;2022-08-01T08:03:42;1.47;;;1.37;;
12484;SDS011;6307;46.804;11.580;2022-08-01T08:06:08;2.80;;;1.37;;
12484;SDS011;6307;46.804;11.580;2022-08-01T08:08:35;3.37;;;1.33;;
12484;SDS011;6307;46.804;11.580;2022-08-01T08:11:01;2.60;;;1.30;;
12484;SDS011;6307;46.804;11.580;2022-08-01T08:13:27;2.33;;;1.40;;
12484;SDS011;6307;46.804;11.580;2022-08-01T08:15:53;2.13;;;1.10;;
12484;SDS011;6307;46.804;11.580;2022-08-01T08:18:20;1.90;;;1.50;;
12484;SDS011;6307;46.804;11.580;2022-08-01T08:20:46;4.33;;;1.23;;
12484;SDS011;6307;46.804;11.580;2022-08-01T08:23:12;1.70;;;1.40;;
12484;SDS011;6307;46.804;11.580;2022-08-01T08:25:57;1.83;;;1.17;;
12484;SDS011;6307;46.804;11.580;2022-08-01T08:28:23;1.30;;;1.20;;
12484;SDS011;6307;46.804;11.580;2022-08-01T08:30:50;4.03;;;1.97;;
12484;SDS011;6307;46.804;11.580;2022-08-01T08:33:17;3.60;;;1.50;;
12484;SDS011;6307;46.804;11.580;2022-08-01T08:35:44;1.50;;;1.40;;
12484;SDS011;6307;46.804;11.580;2022-08-01T08:38:10;2.67;;;1.20;;
12484;SDS011;6307;46.804;11.580;2022-08-01T08:40:37;1.60;;;1.13;;
12484;SDS011;6307;46.804;11.580;2022-08-01T08:43:04;2.70;;;1.43;;
12484;SDS011;6307;46.804;11.580;2022-08-01T08:45:32;3.53;;;1.17;;
12484;SDS011;6307;46.804;11.580;2022-08-01T08:47:59;3.00;;;1.50;;
12484;SDS011;6307;46.804;11.580;2022-08-01T08:50:26;2.33;;;1.50;;
12484;SDS011;6307;46.804;11.580;2022-08-01T08:52:53;1.67;;;1.20;;
12484;SDS011;6307;46.804;11.580;2022-08-01T08:55:21;3.07;;;1.20;;
12484;SDS011;6307;46.804;11.580;2022-08-01T08:57:49;2.67;;;1.50;;
12484;SDS011;6307;46.804;11.580;2022-08-01T09:00:17;1.50;;;1.40;;
12484;SDS011;6307;46.804;11.580;2022-08-01T09:02:44;1.40;;;1.20;;
12484;SDS011;6307;46.804;11.580;2022-08-01T09:05:14;1.83;;;1.20;;
12484;SDS011;6307;46.804;11.580;2022-08-01T09:07:41;2.90;;;1.50;;
12484;SDS011;6307;46.804;11.580;2022-08-01T09:10:08;1.63;;;1.20;;
12484;SDS011;6307;46.804;11.580;2022-08-01T09:12:36;1.50;;;1.40;;
12484;SDS011;6307;46.804;11.580;2022-08-01T09:15:03;1.83;;;1.20;;
12484;SDS011;6307;46.804;11.580;2022-08-01T09:17:38;2.70;;;1.53;;
12484;SDS011;6307;46.804;11.580;2022-08-01T09:20:06;1.40;;;1.30;;
12484;SDS011;6307;46.804;11.580;2022-08-01T09:22:46;3.33;;;1.60;;
12484;SDS011;6307;46.804;11.580;2022-08-01T09:25:13;2.37;;;1.50;;
12484;SDS011;6307;46.804;11.580;2022-08-01T09:27:39;2.30;;;1.70;;
12484;SDS011;6307;46.804;11.580;2022-08-01T09:30:18;1.63;;;1.50;;
12484;SDS011;6307;46.804;11.580;2022-08-01T09:33:01;2.73;;;1.30;;
12484;SDS011;6307;46.804;11.580;2022-08-01T09:35:31;1.77;;;1.67;;
12484;SDS011;6307;46.804;11.580;2022-08-01T09:38:17;2.47;;;1.57;;
12484;SDS011;6307;46.804;11.580;2022-08-01T09:43:19;3.40;;;1.70;;
12484;SDS011;6307;46.804;11.580;2022-08-01T09:45:48;4.90;;;1.60;;
12484;SDS011;6307;46.804;11.580;2022-08-01T09:48:15;3.10;;;1.40;;
12484;SDS011;6307;46.804;11.580;2022-08-01T09:50:43;3.57;;;1.67;;
12484;SDS011;6307;46.804;11.580;2022-08-01T09:53:12;2.13;;;1.60;;
12484;SDS011;6307;46.804;11.580;2022-08-01T09:55:39;2.67;;;1.63;;
12484;SDS011;6307;46.804;11.580;2022-08-01T09:58:07;1.63;;;1.40;;
12484;SDS011;6307;46.804;11.580;2022-08-01T10:00:34;2.13;;;1.30;;
12484;SDS011;6307;46.804;11.580;2022-08-01T10:05:50;1.50;;;1.40;;
12484;SDS011;6307;46.804;11.580;2022-08-01T10:08:18;2.90;;;1.40;;
12484;SDS011;6307;46.804;11.580;2022-08-01T10:13:34;1.50;;;1.10;;
12484;SDS011;6307;46.804;11.580;2022-08-01T10:16:01;3.37;;;1.10;;
12484;SDS011;6307;46.804;11.580;2022-08-01T10:18:29;1.83;;;1.00;;
12484;SDS011;6307;46.804;11.580;2022-08-01T10:21:00;2.60;;;1.00;;
12484;SDS011;6307;46.804;11.580;2022-08-01T10:23:30;1.53;;;0.83;;
12484;SDS011;6307;46.804;11.580;2022-08-01T10:26:01;2.17;;;1.10;;
12484;SDS011;6307;46.804;11.580;2022-08-01T10:28:31;1.47;;;0.90;;
12484;SDS011;6307;46.804;11.580;2022-08-01T10:31:02;0.87;;;0.73;;
12484;SDS011;6307;46.804;11.580;2022-08-01T10:33:29;1.50;;;0.90;;
12484;SDS011;6307;46.804;11.580;2022-08-01T10:35:57;1.27;;;0.80;;
12484;SDS011;6307;46.804;11.580;2022-08-01T10:38:23;1.63;;;1.00;;
12484;SDS011;6307;46.804;11.580;2022-08-01T10:40:50;2.10;;;1.00;;
12484;SDS011;6307;46.804;11.580;2022-08-01T10:43:19;1.40;;;0.80;;
12484;SDS011;6307;46.804;11.580;2022-08-01T10:45:45;1.13;;;0.80;;
12484;SDS011;6307;46.804;11.580;2022-08-01T10:48:13;1.87;;;0.90;;
12484;SDS011;6307;46.804;11.580;2022-08-01T10:50:57;2.20;;;0.83;;
12484;SDS011;6307;46.804;11.580;2022-08-01T10:53:28;2.43;;;0.83;;
12484;SDS011;6307;46.804;11.580;2022-08-01T11:03:57;1.57;;;0.93;;
12484;SDS011;6307;46.804;11.580;2022-08-01T11:09:15;1.47;;;0.90;;
12484;SDS011;6307;46.804;11.580;2022-08-01T11:11:58;1.07;;;0.87;;
12484;SDS011;6307;46.804;11.580;2022-08-01T11:17:33;1.43;;;0.80;;
12484;SDS011;6307;46.804;11.580;2022-08-01T11:25:25;1.57;;;0.73;;
12484;SDS011;6307;46.804;11.580;2022-08-01T11:30:41;0.80;;;0.80;;
12484;SDS011;6307;46.804;11.580;2022-08-01T11:33:09;3.10;;;0.90;;
12484;SDS011;6307;46.804;11.580;2022-08-01T11:35:37;0.73;;;0.73;;
12484;SDS011;6307;46.804;11.580;2022-08-01T11:38:27;1.03;;;0.70;;
12484;SDS011;6307;46.804;11.580;2022-08-01T11:41:11;1.43;;;0.80;;
12484;SDS011;6307;46.804;11.580;2022-08-01T11:47:05;1.13;;;0.93;;
12484;SDS011;6307;46.804;11.580;2022-08-01T11:57:16;1.87;;;1.10;;
12484;SDS011;6307;46.804;11.580;2022-08-01T11:59:53;2.13;;;1.17;;
12484;SDS011;6307;46.804;11.580;2022-08-01T12:02:23;2.03;;;1.20;;
12484;SDS011;6307;46.804;11.580;2022-08-01T12:04:55;2.57;;;1.00;;
12484;SDS011;6307;46.804;11.580;2022-08-01T12:07:26;1.00;;;0.90;;
12484;SDS011;6307;46.804;11.580;2022-08-01T12:09:59;1.83;;;0.90;;
12484;SDS011;6307;46.804;11.580;2022-08-01T12:12:34;1.53;;;1.20;;
12484;SDS011;6307;46.804;11.580;2022-08-01T12:15:06;1.53;;;1.07;;
12484;SDS011;6307;46.804;11.580;2022-08-01T12:17:38;2.27;;;1.20;;
12484;SDS011;6307;46.804;11.580;2022-08-01T12:20:07;1.37;;;1.10;;
12484;SDS011;6307;46.804;11.580;2022-08-01T12:22:37;1.67;;;1.20;;
12484;SDS011;6307;46.804;11.580;2022-08-01T12:25:08;1.50;;;1.10;;
12484;SDS011;6307;46.804;11.580;2022-08-01T12:27:37;2.40;;;1.30;;
12484;SDS011;6307;46.804;11.580;2022-08-01T12:30:06;4.30;;;1.23;;
12484;SDS011;6307;46.804;11.580;2022-08-01T12:32:36;1.70;;;1.30;;
12484;SDS011;6307;46.804;11.580;2022-08-01T12:35:06;1.50;;;1.10;;
12484;SDS011;6307;46.804;11.580;2022-08-01T12:37:37;1.10;;;1.00;;
12484;SDS011;6307;46.804;11.580;2022-08-01T12:40:16;1.80;;;1.23;;
12484;SDS011;6307;46.804;11.580;2022-08-01T12:42:53;1.10;;;1.00;;
12484;SDS011;6307;46.804;11.580;2022-08-01T12:45:25;1.10;;;1.00;;
12484;SDS011;6307;46.804;11.580;2022-08-01T12:47:58;1.13;;;0.90;;
12484;SDS011;6307;46.804;11.580;2022-08-01T12:50:26;1.30;;;1.20;;
12484;SDS011;6307;46.804;11.580;2022-08-01T12:52:55;0.80;;;0.80;;
12484;SDS011;6307;46.804;11.580;2022-08-01T12:55:24;3.03;;;1.10;;
12484;SDS011;6307;46.804;11.580;2022-08-01T13:00:32;1.60;;;0.93;;
12484;SDS011;6307;46.804;11.580;2022-08-01T13:03:04;1.03;;;0.83;;
12484;SDS011;6307;46.804;11.580;2022-08-01T13:08:18;1.63;;;1.10;;
12484;SDS011;6307;46.804;11.580;2022-08-01T13:10:50;1.63;;;1.10;;
12484;SDS011;6307;46.804;11.580;2022-08-01T13:13:48;1.73;;;0.90;;
12484;SDS011;6307;46.804;11.580;2022-08-01T13:16:20;3.20;;;1.20;;
12484;SDS011;6307;46.804;11.580;2022-08-01T13:18:53;1.27;;;1.00;;
12484;SDS011;6307;46.804;11.580;2022-08-01T13:29:42;4.27;;;1.30;;
12484;SDS011;6307;46.804;11.580;2022-08-01T13:32:14;1.10;;;1.00;;
12484;SDS011;6307;46.804;11.580;2022-08-01T13:34:42;2.17;;;1.07;;
12484;SDS011;6307;46.804;11.580;2022-08-01T13:37:08;1.10;;;1.00;;
12484;SDS011;6307;46.804;11.580;2022-08-01T13:39:35;2.63;;;1.20;;
12484;SDS011;6307;46.804;11.580;2022-08-01T13:42:13;2.43;;;1.10;;
12484;SDS011;6307;46.804;11.580;2022-08-01T13:44:41;1.20;;;1.10;;
12484;SDS011;6307;46.804;11.580;2022-08-01T13:47:12;1.03;;;0.80;;
12484;SDS011;6307;46.804;11.580;2022-08-01T13:49:39;2.67;;;1.13;;
12484;SDS011;6307;46.804;11.580;2022-08-01T13:52:05;1.43;;;0.90;;
12484;SDS011;6307;46.804;11.580;2022-08-01T13:54:32;3.17;;;1.00;;
12484;SDS011;6307;46.804;11.580;2022-08-01T13:56:58;1.90;;;1.23;;
12484;SDS011;6307;46.804;11.580;2022-08-01T13:59:25;0.87;;;0.73;;
12484;SDS011;6307;46.804;11.580;2022-08-01T14:01:51;3.23;;;1.20;;
12484;SDS011;6307;46.804;11.580;2022-08-01T14:04:17;1.57;;;1.10;;
12484;SDS011;6307;46.804;11.580;2022-08-01T14:06:44;0.90;;;0.90;;
12484;SDS011;6307;46.804;11.580;2022-08-01T14:09:10;2.13;;;1.03;;
12484;SDS011;6307;46.804;11.580;2022-08-01T14:11:36;1.70;;;1.00;;
12484;SDS011;6307;46.804;11.580;2022-08-01T14:14:03;1.57;;;1.03;;
12484;SDS011;6307;46.804;11.580;2022-08-01T14:16:29;1.10;;;1.00;;
12484;SDS011;6307;46.804;11.580;2022-08-01T14:18:55;0.90;;;0.90;;
12484;SDS011;6307;46.804;11.580;2022-08-01T14:21:22;1.83;;;1.00;;
12484;SDS011;6307;46.804;11.580;2022-08-01T14:23:48;3.10;;;0.83;;
12484;SDS011;6307;46.804;11.580;2022-08-01T14:26:14;1.90;;;1.13;;
12484;SDS011;6307;46.804;11.580;2022-08-01T14:28:40;1.07;;;0.90;;
12484;SDS011;6307;46.804;11.580;2022-08-01T14:31:06;1.10;;;0.90;;
12484;SDS011;6307;46.804;11.580;2022-08-01T14:33:33;0.80;;;0.80;;
12484;SDS011;6307;46.804;11.580;2022-08-01T14:35:59;0.73;;;0.70;;
12484;SDS011;6307;46.804;11.580;2022-08-01T14:38:25;1.30;;;1.00;;
12484;SDS011;6307;46.804;11.580;2022-08-01T14:40:52;1.13;;;1.03;;
12484;SDS011;6307;46.804;11.580;2022-08-01T14:43:18;4.67;;;1.13;;
12484;SDS011;6307;46.804;11.580;2022-08-01T14:45:45;2.00;;;1.13;;
12484;SDS011;6307;46.804;11.580;2022-08-01T14:48:17;1.40;;;0.90;;
12484;SDS011;6307;46.804;11.580;2022-08-01T14:50:43;1.23;;;0.97;;
12484;SDS011;6307;46.804;11.580;2022-08-01T14:53:09;3.70;;;1.07;;
12484;SDS011;6307;46.804;11.580;2022-08-01T14:55:36;1.07;;;0.90;;
12484;SDS011;6307;46.804;11.580;2022-08-01T14:58:02;0.80;;;0.80;;
12484;SDS011;6307;46.804;11.580;2022-08-01T15:00:29;2.53;;;0.90;;
12484;SDS011;6307;46.804;11.580;2022-08-01T15:02:55;1.77;;;0.83;;
12484;SDS011;6307;46.804;11.580;2022-08-01T15:05:21;1.23;;;1.10;;
12484;SDS011;6307;46.804;11.580;2022-08-01T15:07:47;0.80;;;0.80;;
12484;SDS011;6307;46.804;11.580;2022-08-01T15:10:13;2.97;;;1.20;;
12484;SDS011;6307;46.804;11.580;2022-08-01T15:12:41;0.90;;;0.90;;
12484;SDS011;6307;46.804;11.580;2022-08-01T15:15:08;1.20;;;1.10;;
12484;SDS011;6307;46.804;11.580;2022-08-01T15:17:35;1.20;;;1.10;;
12484;SDS011;6307;46.804;11.580;2022-08-01T15:20:03;1.57;;;0.90;;
12484;SDS011;6307;46.804;11.580;2022-08-01T15:22:32;1.00;;;0.87;;
12484;SDS011;6307;46.804;11.580;2022-08-01T15:24:59;2.07;;;0.80;;
12484;SDS011;6307;46.804;11.580;2022-08-01T15:27:27;2.80;;;0.90;;
12484;SDS011;6307;46.804;11.580;2022-08-01T15:29:54;2.77;;;1.10;;
12484;SDS011;6307;46.804;11.580;2022-08-01T15:32:21;1.90;;;1.10;;
12484;SDS011;6307;46.804;11.580;2022-08-01T15:34:48;2.07;;;1.17;;
12484;SDS011;6307;46.804;11.580;2022-08-01T15:37:14;1.77;;;1.10;;
12484;SDS011;6307;46.804;11.580;2022-08-01T15:39:41;1.63;;;1.10;;
12484;SDS011;6307;46.804;11.580;2022-08-01T15:42:11;3.47;;;1.33;;
12484;SDS011;6307;46.804;11.580;2022-08-01T15:44:39;1.73;;;1.00;;
12484;SDS011;6307;46.804;11.580;2022-08-01T15:47:06;1.87;;;0.90;;
12484;SDS011;6307;46.804;11.580;2022-08-01T15:49:33;1.17;;;0.80;;
12484;SDS011;6307;46.804;11.580;2022-08-01T15:52:02;1.93;;;1.20;;
12484;SDS011;6307;46.804;11.580;2022-08-01T15:54:30;1.37;;;1.00;;
12484;SDS011;6307;46.804;11.580;2022-08-01T15:56:57;2.10;;;0.97;;
12484;SDS011;6307;46.804;11.580;2022-08-01T15:59:24;1.50;;;0.90;;
12484;SDS011;6307;46.804;11.580;2022-08-01T16:01:50;1.73;;;1.00;;
12484;SDS011;6307;46.804;11.580;2022-08-01T16:04:16;2.20;;;1.27;;
12484;SDS011;6307;46.804;11.580;2022-08-01T16:06:45;3.70;;;1.17;;
12484;SDS011;6307;46.804;11.580;2022-08-01T16:09:12;3.47;;;1.10;;
12484;SDS011;6307;46.804;11.580;2022-08-01T16:11:38;1.50;;;1.07;;